createdAt,value
2023-01-18T00:13:32.435Z,-1.61
2023-01-18T00:28:36.660Z,-1.40
2023-01-18T00:43:41.405Z,-1.07
2023-01-18T00:58:45.331Z,-0.80
2023-01-18T01:14:08.360Z,-0.74
2023-01-18T01:29:12.086Z,-0.94
2023-01-18T01:44:20.575Z,-0.98
2023-01-18T01:59:24.561Z,-0.93
2023-01-18T02:14:28.948Z,-0.80
2023-01-18T02:29:35.545Z,-0.66
2023-01-18T02:45:02.462Z,-0.64
2023-01-18T03:00:06.838Z,-0.63
2023-01-18T03:15:16.050Z,-0.70
2023-01-18T03:30:38.449Z,-0.74
2023-01-18T03:45:43.366Z,-0.52
2023-01-18T04:00:47.041Z,-0.33
2023-01-18T04:15:51.511Z,-0.51
2023-01-18T04:30:55.727Z,-0.61
2023-01-18T04:46:00.431Z,-0.61
2023-01-18T05:01:04.710Z,-0.53
2023-01-18T05:16:09.144Z,-0.45
2023-01-18T05:31:13.440Z,-0.34
2023-01-18T05:46:18.003Z,-0.27
2023-01-18T06:01:21.798Z,-0.25
2023-01-18T06:16:26.490Z,-0.35
2023-01-18T06:31:30.248Z,-0.41
2023-01-18T06:46:34.875Z,-0.45
2023-01-18T07:01:39.723Z,-0.37
2023-01-18T07:16:44.845Z,-0.01
2023-01-18T07:31:48.881Z,0.44
2023-01-18T07:46:53.251Z,0.67
2023-01-18T08:01:57.436Z,0.50
2023-01-18T08:17:01.808Z,0.34
2023-01-18T08:32:05.924Z,0.43
2023-01-18T08:47:10.661Z,0.44
2023-01-18T09:02:14.913Z,0.67
2023-01-18T09:17:20.161Z,1.08
2023-01-18T09:32:25.757Z,1.24
2023-01-18T09:47:31.720Z,1.45
2023-01-18T10:02:39.548Z,1.83
2023-01-18T10:17:44.483Z,2.34
2023-01-18T10:32:48.892Z,2.17
2023-01-18T10:47:53.732Z,2.18
2023-01-18T11:02:58.081Z,2.44
2023-01-18T11:18:03.086Z,2.84
2023-01-18T11:33:11.539Z,2.77
2023-01-18T11:48:38.876Z,1.95
2023-01-18T12:03:42.869Z,1.80
2023-01-18T12:18:57.494Z,1.85
2023-01-18T12:34:01.702Z,2.00
2023-01-18T12:49:12.060Z,2.07
2023-01-18T13:04:19.113Z,2.29
2023-01-18T13:19:24.962Z,2.52
2023-01-18T13:34:47.312Z,2.48
2023-01-18T13:49:52.425Z,2.37
2023-01-18T14:05:20.280Z,2.08
2023-01-18T14:20:25.763Z,1.96
2023-01-18T14:35:30.036Z,1.96
2023-01-18T14:50:37.434Z,2.06
2023-01-18T15:05:42.444Z,2.11
2023-01-18T15:20:54.292Z,2.27
2023-01-18T15:35:58.710Z,2.07
2023-01-18T15:51:07.117Z,1.76
2023-01-18T16:06:17.191Z,1.61
2023-01-18T16:21:23.280Z,1.48
2023-01-18T16:36:32.060Z,1.50
2023-01-18T16:51:40.049Z,1.52
2023-01-18T17:06:43.937Z,1.55
2023-01-18T17:21:49.875Z,1.45
2023-01-18T17:36:53.833Z,1.33
2023-01-18T17:51:58.964Z,1.29
2023-01-18T18:07:02.835Z,1.23
2023-01-18T18:22:07.202Z,1.04
2023-01-18T18:37:11.525Z,0.92
2023-01-18T18:52:16.528Z,0.87
2023-01-18T19:07:20.469Z,0.82
2023-01-18T19:22:25.437Z,0.82
2023-01-18T19:37:29.197Z,0.78
2023-01-18T19:52:34.275Z,0.79
2023-01-18T20:07:38.937Z,0.75
2023-01-18T20:22:46.853Z,0.67
2023-01-18T20:37:52.541Z,0.67
2023-01-18T20:52:58.214Z,0.69
2023-01-18T21:08:02.470Z,0.76
2023-01-18T21:23:07.367Z,0.81
2023-01-18T21:38:11.347Z,0.58
2023-01-18T21:53:34.401Z,0.52
2023-01-18T22:08:38.922Z,0.47
2023-01-18T22:23:43.980Z,0.37
2023-01-18T22:38:47.743Z,0.35
2023-01-18T22:53:53.013Z,0.35
2023-01-18T23:08:56.738Z,0.28
2023-01-18T23:24:01.313Z,0.24
2023-01-18T23:39:23.549Z,0.31
2023-01-18T23:54:28.047Z,0.35
